sensor_id;sensor_type;location;lat;lon;timestamp;pressure;altitude;pressure_sealevel;temperature;humidity
13434;BME280;6789;47.678;9.158;2022-12-20T00:02:29;97452.88;;;2.13;100.00
13434;BME280;6789;47.678;9.158;2022-12-20T00:07:21;97449.63;;;2.11;100.00
13434;BME280;6789;47.678;9.158;2022-12-20T00:12:13;97458.38;;;2.18;100.00
13434;BME280;6789;47.678;9.158;2022-12-20T00:17:05;97439.16;;;2.20;100.00
13434;BME280;6789;47.678;9.158;2022-12-20T00:21:57;97440.56;;;2.15;100.00
13434;BME280;6789;47.678;9.158;2022-12-20T00:26:49;97443.31;;;2.13;100.00
13434;BME280;6789;47.678;9.158;2022-12-20T00:31:41;97447.19;;;2.10;100.00
13434;BME280;6789;47.678;9.158;2022-12-20T00:36:33;97464.53;;;2.17;100.00
13434;BME280;6789;47.678;9.158;2022-12-20T00:41:29;97456.72;;;2.09;100.00
13434;BME280;6789;47.678;9.158;2022-12-20T00:46:22;97448.63;;;2.04;100.00
13434;BME280;6789;47.678;9.158;2022-12-20T00:51:24;97463.16;;;2.05;100.00
13434;BME280;6789;47.678;9.158;2022-12-20T00:56:17;97450.25;;;2.05;100.00
13434;BME280;6789;47.678;9.158;2022-12-20T01:01:22;97445.75;;;2.07;100.00
13434;BME280;6789;47.678;9.158;2022-12-20T01:06:15;97451.19;;;2.04;100.00
13434;BME280;6789;47.678;9.158;2022-12-20T01:11:10;97453.63;;;2.06;100.00
13434;BME280;6789;47.678;9.158;2022-12-20T01:16:06;97446.88;;;2.12;100.00
13434;BME280;6789;47.678;9.158;2022-12-20T01:21:19;97457.06;;;2.14;100.00
13434;BME280;6789;47.678;9.158;2022-12-20T01:26:15;97454.34;;;2.15;100.00
13434;BME280;6789;47.678;9.158;2022-12-20T01:31:10;97444.78;;;2.16;100.00
13434;BME280;6789;47.678;9.158;2022-12-20T01:36:07;97445.41;;;2.10;100.00
13434;BME280;6789;47.678;9.158;2022-12-20T01:41:00;97441.28;;;2.25;100.00
13434;BME280;6789;47.678;9.158;2022-12-20T01:45:52;97444.00;;;2.23;100.00
13434;BME280;6789;47.678;9.158;2022-12-20T01:50:45;97447.22;;;2.17;100.00
13434;BME280;6789;47.678;9.158;2022-12-20T01:55:38;97441.91;;;2.19;100.00
13434;BME280;6789;47.678;9.158;2022-12-20T02:00:30;97431.19;;;2.14;100.00
13434;BME280;6789;47.678;9.158;2022-12-20T02:05:22;97430.59;;;2.20;100.00
13434;BME280;6789;47.678;9.158;2022-12-20T02:10:15;97422.84;;;2.20;100.00
13434;BME280;6789;47.678;9.158;2022-12-20T02:30:57;97415.69;;;2.14;100.00
13434;BME280;6789;47.678;9.158;2022-12-20T02:35:53;97419.88;;;2.15;100.00
13434;BME280;6789;47.678;9.158;2022-12-20T02:40:45;97409.25;;;2.18;100.00
13434;BME280;6789;47.678;9.158;2022-12-20T02:45:37;97411.38;;;2.22;100.00
13434;BME280;6789;47.678;9.158;2022-12-20T02:50:36;97409.91;;;2.20;100.00
13434;BME280;6789;47.678;9.158;2022-12-20T02:55:45;97400.19;;;2.22;100.00
13434;BME280;6789;47.678;9.158;2022-12-20T03:00:54;97384.22;;;2.26;100.00
13434;BME280;6789;47.678;9.158;2022-12-20T03:05:50;97384.22;;;2.26;100.00
13434;BME280;6789;47.678;9.158;2022-12-20T03:10:43;97392.00;;;2.34;100.00
13434;BME280;6789;47.678;9.158;2022-12-20T03:15:35;97380.53;;;2.37;100.00
13434;BME280;6789;47.678;9.158;2022-12-20T03:20:27;97362.59;;;2.43;100.00
13434;BME280;6789;47.678;9.158;2022-12-20T03:25:19;97371.66;;;2.47;100.00
13434;BME280;6789;47.678;9.158;2022-12-20T03:30:11;97360.81;;;2.44;100.00
13434;BME280;6789;47.678;9.158;2022-12-20T03:35:05;97361.13;;;2.41;100.00
13434;BME280;6789;47.678;9.158;2022-12-20T03:39:57;97360.00;;;2.43;100.00
13434;BME280;6789;47.678;9.158;2022-12-20T03:44:48;97336.06;;;2.41;100.00
13434;BME280;6789;47.678;9.158;2022-12-20T03:49:40;97340.75;;;2.46;100.00
13434;BME280;6789;47.678;9.158;2022-12-20T03:54:32;97343.22;;;2.47;100.00
13434;BME280;6789;47.678;9.158;2022-12-20T03:59:24;97347.38;;;2.40;100.00
13434;BME280;6789;47.678;9.158;2022-12-20T04:04:15;97351.25;;;2.36;100.00
13434;BME280;6789;47.678;9.158;2022-12-20T04:09:07;97340.75;;;2.38;100.00
13434;BME280;6789;47.678;9.158;2022-12-20T04:13:59;97346.25;;;2.43;100.00
13434;BME280;6789;47.678;9.158;2022-12-20T04:18:51;97336.56;;;2.37;100.00
13434;BME280;6789;47.678;9.158;2022-12-20T04:23:43;97330.25;;;2.39;100.00
13434;BME280;6789;47.678;9.158;2022-12-20T04:28:35;97329.59;;;2.45;100.00
13434;BME280;6789;47.678;9.158;2022-12-20T04:33:28;97329.13;;;2.42;100.00
13434;BME280;6789;47.678;9.158;2022-12-20T04:38:21;97329.41;;;2.39;100.00
13434;BME280;6789;47.678;9.158;2022-12-20T04:43:13;97328.81;;;2.45;100.00
13434;BME280;6789;47.678;9.158;2022-12-20T04:48:04;97336.88;;;2.42;100.00
13434;BME280;6789;47.678;9.158;2022-12-20T04:53:16;97327.66;;;2.39;100.00
13434;BME280;6789;47.678;9.158;2022-12-20T04:58:27;97342.81;;;2.26;100.00
13434;BME280;6789;47.678;9.158;2022-12-20T05:03:22;97336.34;;;2.30;100.00
13434;BME280;6789;47.678;9.158;2022-12-20T05:08:28;97330.88;;;2.33;100.00
13434;BME280;6789;47.678;9.158;2022-12-20T05:13:35;97339.59;;;2.32;100.00
13434;BME280;6789;47.678;9.158;2022-12-20T05:18:41;97316.66;;;2.45;100.00
13434;BME280;6789;47.678;9.158;2022-12-20T05:23:47;97308.72;;;2.39;100.00
13434;BME280;6789;47.678;9.158;2022-12-20T05:29:12;97304.19;;;2.33;100.00
13434;BME280;6789;47.678;9.158;2022-12-20T05:34:07;97301.28;;;2.36;100.00
13434;BME280;6789;47.678;9.158;2022-12-20T05:39:34;97286.56;;;2.36;100.00
13434;BME280;6789;47.678;9.158;2022-12-20T05:44:40;97284.34;;;2.41;100.00
13434;BME280;6789;47.678;9.158;2022-12-20T05:49:45;97274.78;;;2.50;100.00
13434;BME280;6789;47.678;9.158;2022-12-20T05:54:51;97277.34;;;2.58;100.00
13434;BME280;6789;47.678;9.158;2022-12-20T05:59:57;97262.00;;;2.48;100.00
13434;BME280;6789;47.678;9.158;2022-12-20T06:04:50;97264.72;;;2.39;100.00
13434;BME280;6789;47.678;9.158;2022-12-20T06:09:57;97274.59;;;2.43;100.00
13434;BME280;6789;47.678;9.158;2022-12-20T06:15:05;97278.66;;;2.46;100.00
13434;BME280;6789;47.678;9.158;2022-12-20T06:20:11;97265.41;;;2.57;100.00
13434;BME280;6789;47.678;9.158;2022-12-20T06:25:11;97271.22;;;2.59;100.00
13434;BME280;6789;47.678;9.158;2022-12-20T06:30:18;97271.53;;;2.80;100.00
13434;BME280;6789;47.678;9.158;2022-12-20T06:35:24;97268.16;;;2.71;100.00
13434;BME280;6789;47.678;9.158;2022-12-20T06:40:30;97280.63;;;2.76;100.00
13434;BME280;6789;47.678;9.158;2022-12-20T06:45:36;97273.97;;;2.73;100.00
13434;BME280;6789;47.678;9.158;2022-12-20T06:50:42;97277.72;;;2.63;100.00
13434;BME280;6789;47.678;9.158;2022-12-20T06:55:48;97275.09;;;2.71;100.00
13434;BME280;6789;47.678;9.158;2022-12-20T07:00:54;97264.75;;;2.63;100.00
13434;BME280;6789;47.678;9.158;2022-12-20T07:06:00;97271.53;;;2.72;100.00
13434;BME280;6789;47.678;9.158;2022-12-20T07:11:07;97277.22;;;2.83;100.00
13434;BME280;6789;47.678;9.158;2022-12-20T07:16:13;97281.25;;;2.85;100.00
13434;BME280;6789;47.678;9.158;2022-12-20T07:21:20;97278.97;;;2.82;100.00
13434;BME280;6789;47.678;9.158;2022-12-20T07:26:26;97280.91;;;2.88;100.00
13434;BME280;6789;47.678;9.158;2022-12-20T07:31:33;97281.91;;;2.80;100.00
13434;BME280;6789;47.678;9.158;2022-12-20T07:36:40;97278.50;;;2.87;100.00
13434;BME280;6789;47.678;9.158;2022-12-20T07:41:46;97283.97;;;2.92;100.00
13434;BME280;6789;47.678;9.158;2022-12-20T07:46:52;97279.94;;;2.89;100.00
13434;BME280;6789;47.678;9.158;2022-12-20T07:52:00;97295.97;;;2.93;100.00
13434;BME280;6789;47.678;9.158;2022-12-20T07:57:38;97283.97;;;2.92;100.00
13434;BME280;6789;47.678;9.158;2022-12-20T08:02:48;97286.75;;;2.98;100.00
13434;BME280;6789;47.678;9.158;2022-12-20T08:07:58;97277.34;;;3.05;100.00
13434;BME280;6789;47.678;9.158;2022-12-20T08:13:06;97280.56;;;3.07;100.00
13434;BME280;6789;47.678;9.158;2022-12-20T08:18:12;97283.00;;;3.01;100.00
13434;BME280;6789;47.678;9.158;2022-12-20T08:23:18;97290.91;;;3.15;100.00
13434;BME280;6789;47.678;9.158;2022-12-20T08:28:24;97291.25;;;3.12;100.00
13434;BME280;6789;47.678;9.158;2022-12-20T08:33:33;97270.34;;;3.22;100.00
13434;BME280;6789;47.678;9.158;2022-12-20T08:38:40;97264.00;;;3.32;100.00
13434;BME280;6789;47.678;9.158;2022-12-20T08:43:42;97250.69;;;3.43;100.00
13434;BME280;6789;47.678;9.158;2022-12-20T08:48:48;97259.75;;;3.39;100.00
13434;BME280;6789;47.678;9.158;2022-12-20T08:53:55;97259.91;;;3.46;100.00
13434;BME280;6789;47.678;9.158;2022-12-20T08:59:02;97250.97;;;3.56;100.00
13434;BME280;6789;47.678;9.158;2022-12-20T09:04:10;97252.84;;;3.70;100.00
13434;BME280;6789;47.678;9.158;2022-12-20T09:09:17;97251.38;;;3.75;100.00
13434;BME280;6789;47.678;9.158;2022-12-20T09:14:23;97263.47;;;3.83;100.00
13434;BME280;6789;47.678;9.158;2022-12-20T09:19:29;97279.03;;;3.83;100.00
13434;BME280;6789;47.678;9.158;2022-12-20T09:24:38;97259.13;;;3.83;100.00
13434;BME280;6789;47.678;9.158;2022-12-20T09:29:44;97267.97;;;3.89;100.00
13434;BME280;6789;47.678;9.158;2022-12-20T09:34:50;97270.44;;;3.90;100.00
13434;BME280;6789;47.678;9.158;2022-12-20T09:39:58;97269.88;;;4.03;100.00
13434;BME280;6789;47.678;9.158;2022-12-20T09:45:13;97257.44;;;4.21;100.00
13434;BME280;6789;47.678;9.158;2022-12-20T09:50:49;97247.41;;;4.40;100.00
13434;BME280;6789;47.678;9.158;2022-12-20T09:56:11;97243.81;;;4.63;100.00
13434;BME280;6789;47.678;9.158;2022-12-20T10:01:28;97231.69;;;4.78;100.00
13434;BME280;6789;47.678;9.158;2022-12-20T10:24:11;97217.72;;;4.79;100.00
13434;BME280;6789;47.678;9.158;2022-12-20T10:29:19;97208.22;;;4.86;100.00
13434;BME280;6789;47.678;9.158;2022-12-20T10:34:26;97205.53;;;4.94;100.00
13434;BME280;6789;47.678;9.158;2022-12-20T10:39:43;97198.03;;;4.99;100.00
13434;BME280;6789;47.678;9.158;2022-12-20T10:44:52;97207.47;;;5.14;100.00
13434;BME280;6789;47.678;9.158;2022-12-20T10:50:16;97182.06;;;5.31;100.00
13434;BME280;6789;47.678;9.158;2022-12-20T11:00:42;97154.31;;;5.52;100.00
13434;BME280;6789;47.678;9.158;2022-12-20T11:06:01;97154.41;;;5.59;100.00
13434;BME280;6789;47.678;9.158;2022-12-20T11:11:17;97137.28;;;5.78;100.00
13434;BME280;6789;47.678;9.158;2022-12-20T11:16:33;97128.91;;;5.68;100.00
13434;BME280;6789;47.678;9.158;2022-12-20T11:22:33;97109.66;;;5.63;100.00
13434;BME280;6789;47.678;9.158;2022-12-20T11:28:16;97103.56;;;5.56;100.00
13434;BME280;6789;47.678;9.158;2022-12-20T11:39:42;97107.09;;;5.49;100.00
13434;BME280;6789;47.678;9.158;2022-12-20T12:03:17;97053.22;;;6.05;100.00
13434;BME280;6789;47.678;9.158;2022-12-20T12:13:39;97066.25;;;6.33;100.00
13434;BME280;6789;47.678;9.158;2022-12-20T12:18:46;97045.44;;;6.33;100.00
13434;BME280;6789;47.678;9.158;2022-12-20T12:24:05;97046.44;;;6.32;100.00
13434;BME280;6789;47.678;9.158;2022-12-20T12:29:17;97040.81;;;6.28;100.00
13434;BME280;6789;47.678;9.158;2022-12-20T12:44:53;97031.47;;;6.40;100.00
13434;BME280;6789;47.678;9.158;2022-12-20T12:49:53;97008.41;;;6.37;100.00
13434;BME280;6789;47.678;9.158;2022-12-20T12:54:51;97013.47;;;6.45;100.00
13434;BME280;6789;47.678;9.158;2022-12-20T12:59:57;97015.25;;;6.78;100.00
13434;BME280;6789;47.678;9.158;2022-12-20T13:20:36;97056.50;;;6.68;100.00
13434;BME280;6789;47.678;9.158;2022-12-20T13:25:50;97045.72;;;6.78;100.00
13434;BME280;6789;47.678;9.158;2022-12-20T13:46:42;97017.97;;;7.10;98.28
13434;BME280;6789;47.678;9.158;2022-12-20T13:52:24;97011.75;;;7.05;98.67
13434;BME280;6789;47.678;9.158;2022-12-20T13:57:42;97005.28;;;6.88;99.29
13434;BME280;6789;47.678;9.158;2022-12-20T14:02:41;96996.81;;;6.80;99.38
13434;BME280;6789;47.678;9.158;2022-12-20T14:07:39;97002.38;;;6.70;100.00
13434;BME280;6789;47.678;9.158;2022-12-20T14:12:45;96991.09;;;6.57;100.00
13434;BME280;6789;47.678;9.158;2022-12-20T14:17:37;96997.75;;;6.32;100.00
13434;BME280;6789;47.678;9.158;2022-12-20T14:22:40;96997.63;;;6.13;100.00
13434;BME280;6789;47.678;9.158;2022-12-20T14:27:47;96985.47;;;5.92;100.00
13434;BME280;6789;47.678;9.158;2022-12-20T14:32:55;96982.94;;;5.78;100.00
13434;BME280;6789;47.678;9.158;2022-12-20T14:38:17;96979.53;;;5.57;100.00
13434;BME280;6789;47.678;9.158;2022-12-20T14:43:33;96959.88;;;5.48;100.00
13434;BME280;6789;47.678;9.158;2022-12-20T14:48:38;96950.22;;;5.42;100.00
13434;BME280;6789;47.678;9.158;2022-12-20T14:53:48;96944.75;;;5.37;100.00
13434;BME280;6789;47.678;9.158;2022-12-20T14:59:27;96954.53;;;5.35;100.00
13434;BME280;6789;47.678;9.158;2022-12-20T15:04:38;96940.56;;;5.36;100.00
13434;BME280;6789;47.678;9.158;2022-12-20T15:09:44;96952.84;;;5.27;100.00
13434;BME280;6789;47.678;9.158;2022-12-20T15:14:39;96948.34;;;5.15;100.00
13434;BME280;6789;47.678;9.158;2022-12-20T15:19:46;96946.41;;;5.02;100.00
13434;BME280;6789;47.678;9.158;2022-12-20T15:24:56;96950.81;;;5.02;100.00
13434;BME280;6789;47.678;9.158;2022-12-20T15:30:34;96947.44;;;5.01;100.00
13434;BME280;6789;47.678;9.158;2022-12-20T15:35:43;96933.91;;;4.92;100.00
13434;BME280;6789;47.678;9.158;2022-12-20T15:40:53;96920.88;;;4.85;100.00
13434;BME280;6789;47.678;9.158;2022-12-20T15:46:02;96932.00;;;4.79;100.00
13434;BME280;6789;47.678;9.158;2022-12-20T15:51:34;96918.47;;;4.69;100.00
13434;BME280;6789;47.678;9.158;2022-12-20T15:56:41;96918.22;;;4.64;100.00
13434;BME280;6789;47.678;9.158;2022-12-20T16:01:47;96919.22;;;4.63;100.00
13434;BME280;6789;47.678;9.158;2022-12-20T16:06:58;96929.09;;;4.53;100.00
13434;BME280;6789;47.678;9.158;2022-12-20T16:12:31;96903.06;;;4.32;100.00
13434;BME280;6789;47.678;9.158;2022-12-20T16:17:39;96914.09;;;4.34;100.00
13434;BME280;6789;47.678;9.158;2022-12-20T16:22:49;96904.16;;;4.23;100.00
13434;BME280;6789;47.678;9.158;2022-12-20T16:27:56;96907.56;;;4.24;100.00
13434;BME280;6789;47.678;9.158;2022-12-20T16:33:03;96912.66;;;4.32;100.00
13434;BME280;6789;47.678;9.158;2022-12-20T16:38:11;96912.09;;;4.22;100.00
13434;BME280;6789;47.678;9.158;2022-12-20T16:43:17;96911.94;;;4.23;100.00
13434;BME280;6789;47.678;9.158;2022-12-20T16:48:23;96902.63;;;4.29;100.00
13434;BME280;6789;47.678;9.158;2022-12-20T16:53:29;96896.91;;;4.33;100.00
13434;BME280;6789;47.678;9.158;2022-12-20T16:58:35;96901.44;;;4.31;100.00
13434;BME280;6789;47.678;9.158;2022-12-20T17:03:43;96906.56;;;4.39;100.00
13434;BME280;6789;47.678;9.158;2022-12-20T17:08:51;96891.81;;;4.40;100.00
13434;BME280;6789;47.678;9.158;2022-12-20T17:13:58;96897.25;;;4.45;100.00
13434;BME280;6789;47.678;9.158;2022-12-20T17:19:09;96901.06;;;4.49;100.00
13434;BME280;6789;47.678;9.158;2022-12-20T17:24:21;96898.81;;;4.60;100.00
13434;BME280;6789;47.678;9.158;2022-12-20T17:29:56;96907.34;;;4.54;100.00
13434;BME280;6789;47.678;9.158;2022-12-20T17:35:35;96919.88;;;4.51;100.00
13434;BME280;6789;47.678;9.158;2022-12-20T17:40:38;96897.31;;;4.51;100.00
13434;BME280;6789;47.678;9.158;2022-12-20T17:45:44;96890.16;;;4.53;100.00
13434;BME280;6789;47.678;9.158;2022-12-20T17:50:50;96892.38;;;4.56;100.00
13434;BME280;6789;47.678;9.158;2022-12-20T17:55:56;96891.75;;;4.54;100.00
13434;BME280;6789;47.678;9.158;2022-12-20T18:01:02;96867.75;;;4.52;100.00
13434;BME280;6789;47.678;9.158;2022-12-20T18:06:08;96863.00;;;4.56;100.00
13434;BME280;6789;47.678;9.158;2022-12-20T18:11:17;96873.22;;;4.57;100.00
13434;BME280;6789;47.678;9.158;2022-12-20T18:16:27;96880.44;;;4.62;100.00
13434;BME280;6789;47.678;9.158;2022-12-20T18:21:34;96861.84;;;4.58;100.00
13434;BME280;6789;47.678;9.158;2022-12-20T18:26:42;96859.88;;;4.60;100.00
13434;BME280;6789;47.678;9.158;2022-12-20T18:31:49;96866.69;;;4.61;100.00
13434;BME280;6789;47.678;9.158;2022-12-20T18:36:58;96857.63;;;4.57;100.00
13434;BME280;6789;47.678;9.158;2022-12-20T18:42:06;96862.47;;;4.60;100.00
13434;BME280;6789;47.678;9.158;2022-12-20T18:47:13;96853.06;;;4.59;100.00
13434;BME280;6789;47.678;9.158;2022-12-20T18:52:21;96866.03;;;4.59;100.00
13434;BME280;6789;47.678;9.158;2022-12-20T18:57:27;96856.66;;;4.58;100.00
13434;BME280;6789;47.678;9.158;2022-12-20T19:02:33;96850.72;;;4.64;100.00
13434;BME280;6789;47.678;9.158;2022-12-20T19:07:39;96848.66;;;4.60;100.00
13434;BME280;6789;47.678;9.158;2022-12-20T19:12:45;96833.09;;;4.60;100.00
13434;BME280;6789;47.678;9.158;2022-12-20T19:17:51;96835.13;;;4.64;100.00
13434;BME280;6789;47.678;9.158;2022-12-20T19:22:46;96826.72;;;4.62;100.00
13434;BME280;6789;47.678;9.158;2022-12-20T19:27:52;96837.38;;;4.67;100.00
13434;BME280;6789;47.678;9.158;2022-12-20T19:32:58;96833.66;;;4.55;100.00
13434;BME280;6789;47.678;9.158;2022-12-20T19:37:52;96841.19;;;4.71;100.00
13434;BME280;6789;47.678;9.158;2022-12-20T19:42:59;96831.31;;;4.60;100.00
13434;BME280;6789;47.678;9.158;2022-12-20T19:48:06;96832.03;;;4.54;100.00
13434;BME280;6789;47.678;9.158;2022-12-20T19:53:12;96833.28;;;4.58;100.00
13434;BME280;6789;47.678;9.158;2022-12-20T19:58:18;96828.09;;;4.58;100.00
13434;BME280;6789;47.678;9.158;2022-12-20T20:03:24;96817.09;;;4.77;100.00
13434;BME280;6789;47.678;9.158;2022-12-20T20:08:31;96825.50;;;4.79;100.00
13434;BME280;6789;47.678;9.158;2022-12-20T20:13:37;96827.09;;;4.59;100.00
13434;BME280;6789;47.678;9.158;2022-12-20T20:18:43;96824.38;;;4.67;100.00
13434;BME280;6789;47.678;9.158;2022-12-20T20:23:52;96840.75;;;4.68;100.00
13434;BME280;6789;47.678;9.158;2022-12-20T20:29:00;96827.09;;;4.59;100.00
13434;BME280;6789;47.678;9.158;2022-12-20T20:34:06;96832.41;;;4.51;100.00
13434;BME280;6789;47.678;9.158;2022-12-20T20:39:13;96820.53;;;4.42;100.00
13434;BME280;6789;47.678;9.158;2022-12-20T20:44:19;96830.09;;;4.42;100.00
13434;BME280;6789;47.678;9.158;2022-12-20T20:49:19;96829.75;;;4.45;100.00
13434;BME280;6789;47.678;9.158;2022-12-20T20:54:25;96838.88;;;4.41;100.00
13434;BME280;6789;47.678;9.158;2022-12-20T20:59:31;96835.38;;;4.48;100.00
13434;BME280;6789;47.678;9.158;2022-12-20T21:04:37;96848.81;;;4.52;100.00
13434;BME280;6789;47.678;9.158;2022-12-20T21:09:45;96849.34;;;4.47;100.00
13434;BME280;6789;47.678;9.158;2022-12-20T21:14:51;96847.28;;;4.43;100.00
13434;BME280;6789;47.678;9.158;2022-12-20T21:19:57;96849.34;;;4.47;100.00
13434;BME280;6789;47.678;9.158;2022-12-20T21:25:05;96843.22;;;4.55;100.00
13434;BME280;6789;47.678;9.158;2022-12-20T21:30:12;96846.22;;;4.52;100.00
13434;BME280;6789;47.678;9.158;2022-12-20T21:35:18;96835.44;;;4.55;100.00
13434;BME280;6789;47.678;9.158;2022-12-20T21:40:24;96825.91;;;4.62;100.00
13434;BME280;6789;47.678;9.158;2022-12-20T21:45:32;96837.06;;;4.56;100.00
13434;BME280;6789;47.678;9.158;2022-12-20T21:50:32;96844.16;;;4.47;100.00
13434;BME280;6789;47.678;9.158;2022-12-20T21:55:38;96837.00;;;4.49;100.00
13434;BME280;6789;47.678;9.158;2022-12-20T22:00:44;96834.41;;;4.49;100.00
13434;BME280;6789;47.678;9.158;2022-12-20T22:05:47;96832.50;;;4.43;100.00
13434;BME280;6789;47.678;9.158;2022-12-20T22:10:47;96832.16;;;4.46;100.00
13434;BME280;6789;47.678;9.158;2022-12-20T22:15:41;96849.09;;;4.42;100.00
13434;BME280;6789;47.678;9.158;2022-12-20T22:20:47;96849.44;;;4.39;100.00
13434;BME280;6789;47.678;9.158;2022-12-20T22:25:53;96850.88;;;4.42;100.00
13434;BME280;6789;47.678;9.158;2022-12-20T22:30:46;96835.31;;;4.63;100.00
13434;BME280;6789;47.678;9.158;2022-12-20T22:35:46;96856.53;;;4.66;100.00
13434;BME280;6789;47.678;9.158;2022-12-20T22:40:52;96853.38;;;4.50;100.00
13434;BME280;6789;47.678;9.158;2022-12-20T22:45:57;96845.75;;;4.48;100.00
13434;BME280;6789;47.678;9.158;2022-12-20T22:51:17;96836.81;;;4.51;100.00
13434;BME280;6789;47.678;9.158;2022-12-20T22:56:23;96838.28;;;4.60;100.00
13434;BME280;6789;47.678;9.158;2022-12-20T23:01:30;96827.94;;;4.45;100.00
13434;BME280;6789;47.678;9.158;2022-12-20T23:06:36;96824.56;;;4.45;100.00
13434;BME280;6789;47.678;9.158;2022-12-20T23:11:41;96834.56;;;4.48;100.00
13434;BME280;6789;47.678;9.158;2022-12-20T23:17:08;96830.94;;;4.42;100.00
13434;BME280;6789;47.678;9.158;2022-12-20T23:22:02;96827.69;;;4.40;100.00
13434;BME280;6789;47.678;9.158;2022-12-20T23:27:15;96820.25;;;4.37;100.00
13434;BME280;6789;47.678;9.158;2022-12-20T23:32:07;96810.25;;;4.34;100.00
13434;BME280;6789;47.678;9.158;2022-12-20T23:37:13;96820.00;;;4.32;100.00
13434;BME280;6789;47.678;9.158;2022-12-20T23:42:06;96834.41;;;4.35;100.00
13434;BME280;6789;47.678;9.158;2022-12-20T23:47:12;96837.00;;;4.35;100.00
13434;BME280;6789;47.678;9.158;2022-12-20T23:52:13;96834.06;;;4.38;100.00
13434;BME280;6789;47.678;9.158;2022-12-20T23:57:19;96838.31;;;4.45;100.00
